Time;durP1;ratioP1;P1;durP2;ratioP2;P2;SDS_P1;SDS_P2;PMS_P1;PMS_P2;Temp;Humidity;BMP_temperature;BMP_pressure;BME280_temperature;BME280_humidity;BME280_pressure;Samples;Min_cycle;Max_cycle;Signal;HPM_P1;HPM_P2
2023/05/03 00:02:16;;;;;;;3.15;0.70;;;;;;;18.57;46.61;100804.38;5032460;28;20060;-53
2023/05/03 00:04:45;;;;;;;3.50;1.00;;;;;;;18.61;47.22;100810.13;5031156;28;20056;-50
2023/05/03 00:07:11;;;;;;;4.75;0.82;;;;;;;18.57;46.17;100809.81;5034743;28;20040;-48
2023/05/03 00:09:37;;;;;;;5.82;0.80;;;;;;;18.51;46.36;100799.19;5033553;28;20466;-50
2023/05/03 00:12:05;;;;;;;4.38;1.02;;;;;;;18.21;47.92;100795.13;5036092;28;20100;-50
2023/05/03 00:14:31;;;;;;;3.47;0.65;;;;;;;17.78;51.02;100790.69;5032676;28;20433;-49
2023/05/03 00:16:57;;;;;;;4.50;1.10;;;;;;;17.72;52.42;100788.97;5034492;28;20104;-50
2023/05/03 00:19:31;;;;;;;5.63;1.27;;;;;;;17.62;56.74;100787.78;5032859;28;20033;-52
2023/05/03 00:21:58;;;;;;;3.67;1.02;;;;;;;17.63;52.58;100788.59;5032960;28;20432;-51
2023/05/03 00:24:24;;;;;;;6.85;0.98;;;;;;;17.50;52.18;100778.97;5033358;28;20026;-50
2023/05/03 00:26:51;;;;;;;2.92;1.00;;;;;;;17.49;52.92;100779.22;5038991;28;20029;-50
2023/05/03 00:29:20;;;;;;;6.10;1.25;;;;;;;17.14;52.15;100786.66;5052792;28;20021;-51
2023/05/03 00:31:46;;;;;;;3.28;1.15;;;;;;;17.24;53.61;100787.84;5052500;28;20025;-51
2023/05/03 00:34:12;;;;;;;3.55;0.95;;;;;;;17.08;52.53;100776.84;5016592;28;20478;-50
2023/05/03 00:36:39;;;;;;;5.43;1.20;;;;;;;16.91;52.59;100776.06;5033028;28;20037;-51
2023/05/03 00:39:05;;;;;;;7.75;1.23;;;;;;;16.77;52.78;100781.03;5032641;28;20359;-49
2023/05/03 00:41:31;;;;;;;2.33;1.13;;;;;;;16.84;53.95;100772.72;5032672;28;20033;-51
2023/05/03 00:43:57;;;;;;;3.60;1.02;;;;;;;16.61;54.58;100777.25;5032853;28;20032;-51
2023/05/03 00:46:24;;;;;;;4.82;1.25;;;;;;;16.70;54.25;100776.81;5032987;28;20022;-51
2023/05/03 00:48:50;;;;;;;5.05;1.13;;;;;;;16.82;53.71;100769.44;5032715;28;20037;-51
2023/05/03 00:51:20;;;;;;;4.63;0.95;;;;;;;16.72;54.33;100772.84;5032321;28;20025;-50
2023/05/03 00:53:46;;;;;;;2.72;0.80;;;;;;;16.87;52.28;100766.81;5032933;28;20029;-51
2023/05/03 00:56:19;;;;;;;3.15;0.77;;;;;;;16.72;51.43;100758.50;5030562;28;20488;-51
2023/05/03 00:58:46;;;;;;;2.67;0.88;;;;;;;16.61;51.20;100763.72;5031799;28;20096;-52
2023/05/03 01:01:12;;;;;;;1.33;0.70;;;;;;;16.58;52.80;100766.91;5031626;28;20013;-51
2023/05/03 01:03:40;;;;;;;5.20;0.90;;;;;;;16.39;53.11;100765.56;5039862;28;20032;-51
2023/05/03 01:06:31;;;;;;;5.63;1.05;;;;;;;16.49;53.65;100763.00;5052132;28;20409;-51
2023/05/03 01:09:20;;;;;;;4.82;1.27;;;;;;;16.72;55.26;100769.31;5041192;28;20033;-51
2023/05/03 01:12:12;;;;;;;1.10;0.50;;;;;;;16.39;52.98;100762.84;5032320;28;20029;-51
2023/05/03 01:15:10;;;;;;;1.88;0.80;;;;;;;16.62;54.81;100768.06;5014327;28;20056;-51
2023/05/03 01:17:47;;;;;;;2.35;0.57;;;;;;;15.98;54.49;100772.94;5031983;28;20429;-51
2023/05/03 01:20:16;;;;;;;0.98;0.45;;;;;;;16.04;54.52;100768.47;5032061;28;20033;-51
2023/05/03 01:23:04;;;;;;;3.40;0.90;;;;;;;16.24;56.85;100771.50;5031846;28;20046;-49
2023/05/03 01:25:31;;;;;;;;;;;;;;;16.36;59.12;100779.53;5032639;28;20027;-51
2023/05/03 01:27:57;;;;;;;6.85;1.17;;;;;;;16.51;57.22;100763.56;5035586;28;19912;-50
2023/05/03 01:30:26;;;;;;;5.90;1.05;;;;;;;16.57;57.01;100768.00;5032160;28;20068;-46
2023/05/03 01:33:16;;;;;;;3.10;1.00;;;;;;;16.76;54.85;100762.31;5031210;28;20037;-48
2023/05/03 01:36:04;;;;;;;4.57;1.02;;;;;;;16.91;55.18;100767.13;5031933;28;20095;-50
2023/05/03 01:38:35;;;;;;;4.63;1.00;;;;;;;17.15;53.11;100771.25;5031939;28;20100;-50
2023/05/03 01:41:05;;;;;;;3.92;1.17;;;;;;;17.25;53.19;100770.56;5031647;28;20041;-51
2023/05/03 01:43:33;;;;;;;2.55;0.88;;;;;;;17.20;51.14;100768.59;5031844;28;20033;-51
2023/05/03 01:45:59;;;;;;;3.97;1.08;;;;;;;17.33;52.50;100770.13;5031748;28;20370;-51
2023/05/03 01:48:26;;;;;;;2.28;0.70;;;;;;;17.41;51.76;100765.06;5029384;28;20022;-52
2023/05/03 01:50:52;;;;;;;2.50;0.70;;;;;;;17.49;50.77;100763.81;5031333;28;20073;-52
2023/05/03 01:53:19;;;;;;;3.40;0.90;;;;;;;17.52;51.97;100763.31;5031697;28;20034;-48
2023/05/03 01:55:45;;;;;;;3.20;0.80;;;;;;;17.49;50.67;100769.25;5031635;28;20021;-52
2023/05/03 01:58:11;;;;;;;8.13;1.13;;;;;;;17.17;49.73;100760.19;5031691;28;20405;-52
2023/05/03 02:00:38;;;;;;;2.95;0.70;;;;;;;17.31;50.64;100769.53;5031509;28;20029;-51
2023/05/03 02:03:04;;;;;;;3.92;0.70;;;;;;;17.37;52.45;100757.72;5029186;28;20028;-51
2023/05/03 02:05:30;;;;;;;4.43;1.20;;;;;;;17.24;52.86;100758.09;5038068;28;20018;-51
2023/05/03 02:07:57;;;;;;;3.60;1.00;;;;;;;17.37;53.09;100746.88;5035722;28;20084;-51
2023/05/03 02:10:24;;;;;;;2.88;1.10;;;;;;;17.00;51.49;100744.03;5038483;28;20041;-51
2023/05/03 02:12:50;;;;;;;2.45;0.82;;;;;;;16.97;52.77;100750.72;5035524;28;20532;-52
2023/05/03 02:15:18;;;;;;;3.50;0.90;;;;;;;16.88;55.13;100750.38;5031107;28;20026;-51
2023/05/03 02:17:46;;;;;;;3.90;0.80;;;;;;;16.66;52.55;100757.59;5034769;28;20034;-49
2023/05/03 02:20:12;;;;;;;3.13;0.98;;;;;;;16.69;55.43;100758.97;5035447;28;20119;-51
2023/05/03 02:22:38;;;;;;;4.28;0.90;;;;;;;16.59;54.42;100765.84;5017407;28;20072;-51
2023/05/03 02:25:06;;;;;;;2.20;0.77;;;;;;;16.38;56.61;100766.63;5033803;28;20477;-50
2023/05/03 02:27:32;;;;;;;5.85;1.27;;;;;;;16.40;56.27;100769.06;5025198;28;20371;-52
2023/05/03 02:29:59;;;;;;;2.58;0.85;;;;;;;15.93;58.02;100766.66;5035124;28;20026;-51
2023/05/03 02:32:25;;;;;;;5.28;0.93;;;;;;;15.83;58.59;100768.13;5020525;28;20376;-52
2023/05/03 02:34:51;;;;;;;3.80;0.68;;;;;;;15.20;60.72;100766.31;5033570;28;20124;-51
2023/05/03 02:37:18;;;;;;;2.28;0.73;;;;;;;14.69;60.71;100776.00;5035096;28;20030;-52
2023/05/03 02:39:44;;;;;;;2.88;0.80;;;;;;;14.57;62.10;100777.06;5029136;28;20471;-52
2023/05/03 02:42:10;;;;;;;6.35;1.00;;;;;;;14.20;64.96;100772.63;5031956;28;20478;-51
2023/05/03 02:44:36;;;;;;;2.70;1.00;;;;;;;13.65;66.39;100785.47;5031671;28;20025;-51
2023/05/03 02:47:03;;;;;;;4.20;0.82;;;;;;;13.85;66.00;100780.63;5035154;28;20033;-51
2023/05/03 02:49:29;;;;;;;5.63;1.80;;;;;;;12.93;68.97;100793.31;5035291;28;20025;-51
2023/05/03 02:51:56;;;;;;;2.92;1.33;;;;;;;12.93;70.32;100788.75;5034779;28;20052;-51
2023/05/03 02:54:23;;;;;;;3.35;0.88;;;;;;;13.18;69.82;100790.56;5035096;28;20033;-51
2023/05/03 02:56:49;;;;;;;2.40;0.70;;;;;;;13.20;71.47;100791.16;5035279;28;20025;-51
2023/05/03 02:59:16;;;;;;;8.05;1.85;;;;;;;12.90;74.91;100791.91;5034414;28;20035;-50
2023/05/03 03:01:42;;;;;;;5.63;1.23;;;;;;;12.86;75.75;100787.19;5029911;28;20595;-51
2023/05/03 03:04:09;;;;;;;3.15;1.30;;;;;;;13.28;72.20;100782.84;5053393;28;20469;-51
2023/05/03 03:06:35;;;;;;;6.00;1.60;;;;;;;12.15;73.19;100788.41;5043775;28;20021;-51
2023/05/03 03:09:02;;;;;;;3.30;0.95;;;;;;;12.38;73.81;100786.00;5034781;28;20029;-49
2023/05/03 03:11:29;;;;;;;2.55;0.77;;;;;;;12.42;71.96;100786.34;5034629;28;20588;-50
2023/05/03 03:13:55;;;;;;;2.95;0.82;;;;;;;11.80;72.80;100794.19;5034638;28;20136;-49
2023/05/03 03:16:21;;;;;;;0.98;0.70;;;;;;;11.93;74.62;100792.50;5036599;28;20024;-49
2023/05/03 03:18:47;;;;;;;2.92;0.50;;;;;;;12.14;73.09;100805.56;5040794;28;20032;-51
2023/05/03 03:21:14;;;;;;;2.20;1.10;;;;;;;12.25;71.93;100807.53;5052146;28;20056;-51
2023/05/03 03:23:40;;;;;;;0.75;0.50;;;;;;;12.08;73.02;100803.75;5035974;28;20061;-49
2023/05/03 03:26:06;;;;;;;2.13;0.77;;;;;;;11.65;74.04;100809.72;5033980;28;20076;-51
2023/05/03 03:28:32;;;;;;;1.73;0.80;;;;;;;11.19;76.77;100801.88;5017213;28;20025;-51
2023/05/03 03:30:58;;;;;;;3.17;0.90;;;;;;;11.16;77.75;100811.19;5034120;28;20033;-50
2023/05/03 03:33:25;;;;;;;6.18;0.85;;;;;;;11.36;76.17;100811.91;5034233;28;20560;-52
2023/05/03 03:35:51;;;;;;;2.83;0.95;;;;;;;11.14;78.57;100804.38;5032596;28;20033;-50
2023/05/03 03:38:18;;;;;;;2.50;0.90;;;;;;;10.97;78.90;100807.50;5033563;28;20027;-51
2023/05/03 03:40:44;;;;;;;2.45;0.70;;;;;;;10.81;79.55;100805.25;5033341;28;20033;-51
2023/05/03 03:43:10;;;;;;;1.27;0.70;;;;;;;10.78;80.74;100811.88;5029993;28;20026;-50
2023/05/03 03:45:36;;;;;;;3.90;0.98;;;;;;;10.87;80.27;100808.97;5033761;28;20029;-51
2023/05/03 03:48:03;;;;;;;2.08;0.93;;;;;;;10.80;79.85;100806.28;5033947;28;20076;-50
2023/05/03 03:50:29;;;;;;;3.25;0.77;;;;;;;10.78;80.55;100805.69;5033564;28;20733;-50
2023/05/03 03:52:55;;;;;;;4.00;1.20;;;;;;;10.58;81.68;100806.50;5033861;28;20047;-51
2023/05/03 03:55:21;;;;;;;3.17;0.98;;;;;;;10.75;81.35;100801.56;5039018;28;20032;-50
2023/05/03 03:57:48;;;;;;;1.85;0.70;;;;;;;10.78;81.60;100811.88;5052476;28;20025;-51
2023/05/03 04:00:15;;;;;;;4.07;0.98;;;;;;;10.50;82.40;100813.94;5033332;28;20021;-51
2023/05/03 04:02:41;;;;;;;1.83;0.80;;;;;;;10.42;83.66;100816.81;5033527;28;20032;-48
2023/05/03 04:05:08;;;;;;;5.32;1.25;;;;;;;10.51;83.24;100804.88;5033650;28;20393;-50
2023/05/03 04:07:34;;;;;;;4.70;1.17;;;;;;;10.43;85.00;100807.75;5033569;28;20022;-50
2023/05/03 04:10:00;;;;;;;3.17;0.95;;;;;;;10.37;84.91;100814.75;5033466;28;20757;-51
2023/05/03 04:12:26;;;;;;;5.32;1.30;;;;;;;10.25;85.36;100825.22;5033404;28;20022;-50
2023/05/03 04:14:53;;;;;;;2.90;0.90;;;;;;;10.20;85.43;100830.34;5030108;28;20041;-50
2023/05/03 04:17:20;;;;;;;2.75;1.00;;;;;;;10.13;85.27;100829.50;5032849;28;20543;-50
2023/05/03 04:19:46;;;;;;;1.95;1.02;;;;;;;10.12;85.78;100835.91;5032521;28;20099;-50
2023/05/03 04:22:12;;;;;;;1.60;0.90;;;;;;;10.17;85.90;100833.44;5031793;28;20445;-49
2023/05/03 04:24:39;;;;;;;2.08;0.80;;;;;;;10.38;85.14;100828.94;5031251;28;20088;-51
2023/05/03 04:27:07;;;;;;;5.43;1.23;;;;;;;10.29;84.57;100834.50;5032818;28;20109;-50
2023/05/03 04:29:33;;;;;;;1.63;0.77;;;;;;;10.30;85.61;100825.44;5030959;28;20032;-50
2023/05/03 04:32:01;;;;;;;1.75;0.77;;;;;;;10.29;85.38;100826.47;5031520;28;20071;-51
2023/05/03 04:34:29;;;;;;;2.88;1.00;;;;;;;10.30;84.90;100830.81;5033100;28;20036;-50
2023/05/03 04:36:56;;;;;;;2.25;1.10;;;;;;;10.46;84.54;100826.91;5032788;28;20025;-51
2023/05/03 04:39:23;;;;;;;2.30;0.70;;;;;;;10.38;84.25;100842.31;5032850;28;20543;-50
2023/05/03 04:41:49;;;;;;;3.72;1.00;;;;;;;10.72;82.30;100844.00;5032320;28;20025;-51
2023/05/03 04:44:16;;;;;;;1.80;1.05;;;;;;;10.84;81.26;100839.66;5032716;28;20021;-50
2023/05/03 04:46:42;;;;;;;3.97;0.90;;;;;;;10.50;81.69;100838.03;5032695;28;20032;-51
2023/05/03 04:49:08;;;;;;;4.43;1.23;;;;;;;10.44;82.84;100842.34;5032662;28;20037;-50
2023/05/03 04:51:35;;;;;;;1.92;0.63;;;;;;;10.35;82.95;100842.75;5031032;28;20021;-48
2023/05/03 04:54:01;;;;;;;4.13;1.10;;;;;;;10.26;84.03;100842.94;5032887;28;20033;-51
2023/05/03 04:56:28;;;;;;;3.50;1.20;;;;;;;10.30;83.69;100851.38;5014787;28;20025;-51
2023/05/03 04:58:54;;;;;;;1.55;1.15;;;;;;;10.31;83.73;100850.34;5032528;28;20076;-48
2023/05/03 05:01:26;;;;;;;2.70;0.90;;;;;;;10.28;83.93;100854.25;5032352;28;20032;-50
2023/05/03 05:03:53;;;;;;;3.97;0.98;;;;;;;10.30;83.13;100857.56;5032979;28;20119;-50
2023/05/03 05:06:19;;;;;;;1.42;0.85;;;;;;;10.44;81.81;100857.59;5032800;28;20091;-51
2023/05/03 05:08:46;;;;;;;2.50;0.80;;;;;;;10.55;82.17;100857.78;5032372;28;20482;-50
2023/05/03 05:11:13;;;;;;;3.17;0.90;;;;;;;10.73;80.16;100856.34;5032072;28;20038;-49
2023/05/03 05:13:40;;;;;;;2.83;0.80;;;;;;;10.83;79.96;100860.25;5032334;28;20025;-51
2023/05/03 05:16:06;;;;;;;2.25;0.70;;;;;;;10.69;80.69;100860.47;5032328;28;20033;-51
2023/05/03 05:18:33;;;;;;;3.17;0.93;;;;;;;10.66;80.52;100856.34;5032169;28;20018;-50
2023/05/03 05:20:59;;;;;;;1.63;0.70;;;;;;;10.83;80.42;100862.94;5031029;28;20041;-51
2023/05/03 05:23:26;;;;;;;2.95;0.88;;;;;;;10.98;77.61;100859.19;5028463;28;20026;-49
2023/05/03 05:25:53;;;;;;;3.05;1.08;;;;;;;11.23;76.29;100862.06;5030157;28;20104;-51
2023/05/03 05:28:19;;;;;;;2.85;0.68;;;;;;;11.28;74.07;100856.91;5014719;28;20036;-51
2023/05/03 05:30:45;;;;;;;2.05;0.50;;;;;;;11.28;72.14;100863.06;5030969;28;20083;-50
2023/05/03 05:33:11;;;;;;;3.10;0.75;;;;;;;11.27;72.33;100860.59;5031461;28;20517;-51
2023/05/03 05:35:37;;;;;;;2.92;0.73;;;;;;;11.02;74.12;100857.75;5030784;28;20124;-50
2023/05/03 05:38:04;;;;;;;3.45;0.65;;;;;;;11.05;73.34;100860.03;5031221;28;20025;-51
2023/05/03 05:40:30;;;;;;;4.70;0.75;;;;;;;11.19;71.75;100858.97;5033391;28;20119;-49
2023/05/03 05:42:56;;;;;;;2.22;0.70;;;;;;;11.10;71.65;100852.16;5040546;28;20521;-50
2023/05/03 05:45:23;;;;;;;2.47;0.57;;;;;;;11.20;73.21;100852.56;5031123;28;20053;-49
2023/05/03 05:47:50;;;;;;;0.52;0.40;;;;;;;11.03;74.46;100859.41;5031639;28;20520;-50
2023/05/03 05:50:16;;;;;;;2.35;0.60;;;;;;;10.95;75.14;100860.44;5030806;28;20061;-49
2023/05/03 05:52:42;;;;;;;2.35;0.70;;;;;;;11.01;73.97;100854.25;5031625;28;20034;-50
2023/05/03 05:55:12;;;;;;;2.00;0.60;;;;;;;11.22;72.85;100855.06;5030588;28;20029;-48
2023/05/03 05:57:38;;;;;;;1.90;0.50;;;;;;;11.26;70.96;100858.94;5031792;28;20044;-51
2023/05/03 06:00:13;;;;;;;1.60;0.38;;;;;;;11.50;70.42;100854.78;5030561;28;20037;-49
2023/05/03 06:02:46;;;;;;;4.18;0.60;;;;;;;11.56;71.02;100859.28;5031333;28;20539;-50
2023/05/03 06:05:12;;;;;;;3.63;0.50;;;;;;;11.43;71.80;100867.34;5030264;28;20448;-51
2023/05/03 06:07:39;;;;;;;1.73;0.50;;;;;;;11.54;72.03;100862.16;5025603;28;20181;-52
2023/05/03 06:10:06;;;;;;;2.53;0.60;;;;;;;11.51;72.16;100859.91;5030426;28;20025;-51
2023/05/03 06:12:32;;;;;;;4.05;0.50;;;;;;;11.63;72.91;100868.13;5030770;28;20052;-51
2023/05/03 06:14:59;;;;;;;0.75;0.50;;;;;;;11.57;72.40;100868.97;5039184;28;20021;-50
2023/05/03 06:17:25;;;;;;;1.10;0.43;;;;;;;11.57;73.17;100869.78;5036899;28;20022;-48
2023/05/03 06:19:52;;;;;;;1.23;0.50;;;;;;;11.37;73.73;100875.19;5051404;28;20025;-51
2023/05/03 06:22:18;;;;;;;1.90;0.60;;;;;;;11.24;75.25;100877.09;5051085;28;20103;-50
2023/05/03 06:24:44;;;;;;;2.78;0.68;;;;;;;11.17;76.54;100882.47;5043824;28;20473;-46
2023/05/03 06:27:10;;;;;;;2.03;0.52;;;;;;;11.24;77.59;100885.94;5031335;28;20040;-48
2023/05/03 06:29:37;;;;;;;3.33;0.57;;;;;;;11.02;78.37;100876.50;5038278;28;20347;-49
2023/05/03 06:32:03;;;;;;;1.83;0.85;;;;;;;10.73;80.63;100873.22;5039196;28;20057;-46
2023/05/03 06:34:29;;;;;;;3.38;0.80;;;;;;;10.95;80.65;100881.06;5031217;28;20036;-49
2023/05/03 06:36:56;;;;;;;2.60;0.50;;;;;;;10.66;82.38;100884.94;5031310;28;20029;-50
2023/05/03 06:39:22;;;;;;;1.52;0.77;;;;;;;10.64;82.77;100893.19;5031375;28;20039;-49
2023/05/03 06:41:48;;;;;;;5.45;0.90;;;;;;;10.62;83.33;100889.09;5030929;28;20018;-49
2023/05/03 06:44:15;;;;;;;1.63;0.73;;;;;;;10.67;82.93;100887.44;5031166;28;20030;-48
2023/05/03 06:46:41;;;;;;;2.00;0.68;;;;;;;10.68;83.92;100896.31;5031490;28;20049;-46
2023/05/03 06:49:07;;;;;;;3.90;0.85;;;;;;;10.60;84.39;100883.91;5031759;28;20030;-46
2023/05/03 06:51:33;;;;;;;1.75;0.55;;;;;;;10.53;84.84;100883.91;5034689;28;20029;-50
2023/05/03 06:54:09;;;;;;;3.60;1.00;;;;;;;10.57;85.99;100882.50;5034624;28;20022;-47
2023/05/03 06:56:36;;;;;;;2.90;0.90;;;;;;;10.48;86.06;100891.72;5034800;28;20068;-49
2023/05/03 06:59:02;;;;;;;1.35;0.65;;;;;;;10.41;86.81;100887.41;5034017;28;20442;-50
2023/05/03 07:01:30;;;;;;;5.68;0.90;;;;;;;10.40;87.34;100888.44;5034159;28;20493;-46
2023/05/03 07:03:57;;;;;;;4.97;1.00;;;;;;;10.22;88.48;100871.09;5048305;28;20067;-49
2023/05/03 07:06:23;;;;;;;3.72;1.15;;;;;;;10.45;87.93;100876.09;5040411;28;20064;-49
2023/05/03 07:08:51;;;;;;;2.60;0.70;;;;;;;10.68;87.01;100869.53;5034565;28;20383;-49
2023/05/03 07:11:18;;;;;;;2.80;0.60;;;;;;;10.87;85.68;100871.38;5034491;28;20505;-49
2023/05/03 07:13:45;;;;;;;2.33;0.88;;;;;;;10.78;86.63;100869.94;5034783;28;20033;-48
2023/05/03 07:16:11;;;;;;;3.17;0.93;;;;;;;10.54;86.77;100866.00;5034461;28;20030;-47
2023/05/03 07:18:37;;;;;;;4.47;0.90;;;;;;;10.13;88.24;100866.13;5034407;28;20086;-47
2023/05/03 07:21:05;;;;;;;2.95;0.98;;;;;;;9.95;89.55;100864.84;5034176;28;20428;-51
2023/05/03 07:23:31;;;;;;;2.67;0.88;;;;;;;10.39;88.16;100860.03;5034286;28;20045;-48
2023/05/03 07:25:58;;;;;;;2.30;0.85;;;;;;;10.31;86.55;100859.19;5032894;28;20025;-46
2023/05/03 07:28:24;;;;;;;3.15;0.70;;;;;;;10.35;86.70;100866.81;5033532;28;20021;-50
2023/05/03 07:30:51;;;;;;;2.05;0.63;;;;;;;10.57;86.02;100860.25;5032762;28;20033;-48
2023/05/03 07:33:17;;;;;;;2.33;0.80;;;;;;;10.42;87.38;100854.28;5033090;28;20512;-47
2023/05/03 07:35:47;;;;;;;2.97;0.65;;;;;;;10.70;86.20;100862.09;5033402;28;20028;-50
2023/05/03 07:38:13;;;;;;;1.90;0.65;;;;;;;10.92;85.13;100857.34;5031562;28;20432;-50
2023/05/03 07:40:40;;;;;;;2.45;0.57;;;;;;;10.97;84.74;100860.25;5032686;28;20033;-49
2023/05/03 07:43:11;;;;;;;1.40;1.00;;;;;;;10.98;84.83;100852.00;5024636;28;20117;-49
2023/05/03 07:45:37;;;;;;;2.10;0.63;;;;;;;10.18;87.43;100850.31;5014160;28;20033;-49
2023/05/03 07:48:05;;;;;;;1.85;0.60;;;;;;;10.45;87.14;100853.88;5028692;28;20025;-52
2023/05/03 07:50:31;;;;;;;2.90;0.80;;;;;;;10.45;87.14;100852.03;5032426;28;20025;-48
2023/05/03 07:52:57;;;;;;;3.03;0.90;;;;;;;10.32;86.67;100842.09;5033078;28;20029;-47
2023/05/03 07:55:27;;;;;;;3.53;0.88;;;;;;;10.02;88.09;100843.47;5032739;28;20025;-48
2023/05/03 07:57:57;;;;;;;1.73;0.77;;;;;;;9.84;87.58;100844.06;5034033;28;20026;-50
2023/05/03 08:00:25;;;;;;;4.65;0.80;;;;;;;9.76;88.78;100845.03;5032421;28;20044;-47
2023/05/03 08:02:51;;;;;;;2.00;0.70;;;;;;;9.66;88.03;100844.63;5032263;28;20026;-50
2023/05/03 08:05:18;;;;;;;1.13;0.43;;;;;;;9.53;88.59;100834.66;5032774;28;20029;-50
2023/05/03 08:07:44;;;;;;;0.85;0.50;;;;;;;9.53;88.43;100840.03;5032636;28;20032;-47
2023/05/03 08:10:11;;;;;;;1.60;0.60;;;;;;;9.55;88.46;100839.84;5018800;28;20033;-48
2023/05/03 08:12:38;;;;;;;1.77;0.50;;;;;;;9.56;88.99;100832.66;5014362;28;20390;-48
2023/05/03 08:15:05;;;;;;;1.85;0.52;;;;;;;9.25;91.06;100840.09;5033155;28;20032;-46
2023/05/03 08:17:32;;;;;;;0.73;0.40;;;;;;;9.23;91.85;100834.13;5033612;28;20109;-49
2023/05/03 08:19:58;;;;;;;1.85;0.70;;;;;;;9.32;92.88;100834.78;5032819;28;20041;-47
2023/05/03 08:22:25;;;;;;;1.60;0.70;;;;;;;9.37;92.77;100832.34;5033008;28;20045;-47
2023/05/03 08:24:52;;;;;;;3.30;0.80;;;;;;;9.24;92.54;100829.59;5032906;28;20021;-50
2023/05/03 08:27:19;;;;;;;1.17;0.50;;;;;;;9.17;92.52;100829.59;5033189;28;20025;-50
2023/05/03 08:29:45;;;;;;;2.42;0.70;;;;;;;9.10;94.61;100834.03;5033250;28;20053;-49
2023/05/03 08:32:11;;;;;;;3.08;0.63;;;;;;;9.06;95.34;100831.97;5032623;28;20180;-49
2023/05/03 08:34:37;;;;;;;1.58;0.65;;;;;;;9.12;95.21;100834.69;5032941;28;20025;-47
2023/05/03 08:37:04;;;;;;;2.83;1.08;;;;;;;9.14;95.68;100827.28;5032891;28;20075;-49
2023/05/03 08:39:31;;;;;;;2.47;0.70;;;;;;;9.13;95.76;100825.66;5032824;28;20025;-51
2023/05/03 08:41:57;;;;;;;3.63;0.88;;;;;;;9.04;96.35;100821.47;5032637;28;20025;-48
2023/05/03 08:44:28;;;;;;;1.33;0.80;;;;;;;8.98;97.36;100830.28;5032660;28;20033;-48
2023/05/03 08:46:54;;;;;;;3.95;0.80;;;;;;;9.01;97.06;100816.53;5032811;28;20029;-51
2023/05/03 08:49:20;;;;;;;1.98;0.90;;;;;;;9.04;97.04;100818.81;5032466;28;20030;-50
2023/05/03 08:51:48;;;;;;;1.10;0.68;;;;;;;9.06;97.05;100815.97;5032468;28;20021;-51
2023/05/03 08:54:20;;;;;;;4.00;0.70;;;;;;;9.12;96.97;100818.66;5032405;28;20045;-48
2023/05/03 08:56:47;;;;;;;2.60;0.70;;;;;;;9.10;97.25;100812.69;5032895;28;20026;-50
2023/05/03 08:59:15;;;;;;;6.22;0.70;;;;;;;9.08;96.96;100814.72;5032036;28;20025;-51
2023/05/03 09:01:42;;;;;;;2.50;0.77;;;;;;;8.99;97.12;100810.56;5036373;28;20023;-52
2023/05/03 09:04:10;;;;;;;4.53;0.80;;;;;;;9.05;97.07;100806.28;5048237;28;20033;-51
2023/05/03 09:06:37;;;;;;;4.32;0.70;;;;;;;9.02;96.90;100807.50;5032356;28;20022;-49
2023/05/03 09:09:06;;;;;;;3.38;0.70;;;;;;;9.03;96.27;100811.81;5031822;28;20090;-50
2023/05/03 09:11:33;;;;;;;2.13;0.70;;;;;;;9.01;96.90;100805.88;5030046;28;20052;-50
2023/05/03 09:14:12;;;;;;;1.48;0.70;;;;;;;9.03;97.35;100803.81;5011627;28;20225;-47
2023/05/03 09:16:40;;;;;;;1.05;0.70;;;;;;;8.95;97.73;100804.81;5021998;28;20033;-49
2023/05/03 09:19:11;;;;;;;0.98;0.80;;;;;;;8.93;97.50;100800.66;5032310;28;20022;-48
2023/05/03 09:21:39;;;;;;;2.00;0.80;;;;;;;8.92;98.41;100804.34;5031871;28;20022;-51
2023/05/03 09:24:19;;;;;;;1.13;0.73;;;;;;;8.92;98.38;100799.84;5032082;28;20478;-48
2023/05/03 09:26:49;;;;;;;3.90;0.70;;;;;;;9.02;97.84;100796.81;5031956;28;20048;-52
2023/05/03 09:29:30;;;;;;;1.23;0.60;;;;;;;9.04;97.42;100800.13;5031970;28;20026;-51
2023/05/03 09:32:04;;;;;;;3.58;0.90;;;;;;;8.97;97.63;100793.91;5031330;28;20108;-48
2023/05/03 09:34:31;;;;;;;1.63;0.60;;;;;;;9.06;97.65;100800.75;5031865;28;20430;-51
2023/05/03 09:36:57;;;;;;;3.28;0.60;;;;;;;9.04;97.31;100788.63;5032252;28;20416;-50
2023/05/03 09:39:24;;;;;;;1.98;0.70;;;;;;;9.04;96.65;100791.28;5031715;28;20053;-52
2023/05/03 09:41:50;;;;;;;2.17;0.65;;;;;;;9.10;96.19;100798.50;5031399;28;20068;-51
2023/05/03 09:44:17;;;;;;;0.57;0.57;;;;;;;9.06;95.67;100795.41;5031855;28;20543;-51
2023/05/03 09:47:05;;;;;;;1.38;0.80;;;;;;;9.05;96.31;100793.78;5031659;28;20030;-49
2023/05/03 09:49:32;;;;;;;3.55;0.77;;;;;;;9.10;94.97;100795.84;5032132;28;20026;-51
2023/05/03 09:52:00;;;;;;;3.03;0.50;;;;;;;9.11;96.71;100793.00;5031302;28;20080;-50
2023/05/03 09:54:27;;;;;;;2.95;0.70;;;;;;;9.13;95.71;100790.94;5031690;28;20382;-50
2023/05/03 09:56:57;;;;;;;1.10;0.60;;;;;;;9.16;94.88;100795.03;5031418;28;20112;-50
2023/05/03 09:59:24;;;;;;;0.73;0.60;;;;;;;9.28;93.78;100798.81;5031332;28;20049;-50
2023/05/03 10:01:55;;;;;;;1.55;0.70;;;;;;;9.30;93.65;100791.41;5031299;28;20528;-50
2023/05/03 10:04:24;;;;;;;1.20;0.55;;;;;;;9.37;92.46;100792.28;5033285;28;20091;-51
2023/05/03 10:06:57;;;;;;;1.90;0.40;;;;;;;9.37;92.09;100794.94;5051358;28;20017;-51
2023/05/03 10:09:41;;;;;;;0.60;0.30;;;;;;;9.35;92.31;100796.19;5051707;28;20427;-49
2023/05/03 10:12:11;;;;;;;0.95;0.40;;;;;;;9.40;91.04;100796.41;5043055;28;20068;-52
2023/05/03 10:14:43;;;;;;;1.42;0.50;;;;;;;9.36;91.79;100787.97;5030258;28;20112;-51
2023/05/03 10:17:29;;;;;;;2.03;0.60;;;;;;;9.35;91.14;100801.53;5031353;28;20065;-49
2023/05/03 10:20:25;;;;;;;2.90;0.60;;;;;;;9.39;90.79;100800.09;5030399;28;20542;-47
2023/05/03 10:23:08;;;;;;;2.47;0.47;;;;;;;9.39;89.71;100792.09;5029897;28;20056;-49
2023/05/03 10:25:37;;;;;;;1.13;0.43;;;;;;;9.42;90.32;100797.03;5033479;28;20021;-47
2023/05/03 10:28:05;;;;;;;1.25;0.40;;;;;;;9.41;90.42;100798.03;5034531;28;20033;-47
2023/05/03 10:30:38;;;;;;;0.80;0.40;;;;;;;9.52;90.16;100794.81;5033876;28;20051;-47
2023/05/03 10:33:17;;;;;;;0.93;0.30;;;;;;;9.55;90.01;100793.56;5035054;28;20449;-49
2023/05/03 10:35:53;;;;;;;4.15;0.40;;;;;;;9.55;90.34;100786.41;5034236;28;20033;-48
2023/05/03 10:38:21;;;;;;;1.58;0.60;;;;;;;9.55;90.11;100782.88;5018685;28;20025;-48
2023/05/03 10:40:47;;;;;;;0.68;0.38;;;;;;;9.54;89.64;100790.06;5033977;28;20061;-48
2023/05/03 10:43:32;;;;;;;3.45;0.60;;;;;;;9.59;89.83;100790.28;5034269;28;20027;-46
2023/05/03 10:46:03;;;;;;;0.70;0.47;;;;;;;9.50;89.54;100788.84;5033793;28;20040;-51
2023/05/03 10:48:30;;;;;;;0.60;0.40;;;;;;;9.54;89.91;100782.06;5034967;28;20068;-48
2023/05/03 10:51:17;;;;;;;2.85;0.50;;;;;;;9.41;90.43;100790.03;5033506;28;20029;-52
2023/05/03 10:53:43;;;;;;;1.15;0.47;;;;;;;9.44;88.87;100784.31;5033060;28;20025;-50
2023/05/03 10:56:12;;;;;;;2.70;0.88;;;;;;;9.49;89.13;100792.50;5031407;28;20018;-47
2023/05/03 10:58:47;;;;;;;0.90;0.40;;;;;;;9.46;90.31;100791.09;5032144;28;20040;-49
2023/05/03 11:01:16;;;;;;;2.08;0.70;;;;;;;9.33;90.84;100784.84;5032566;28;20068;-50
2023/05/03 11:04:12;;;;;;;2.47;0.70;;;;;;;9.42;89.07;100783.66;5034213;28;20116;-51
2023/05/03 11:06:45;;;;;;;4.18;1.10;;;;;;;9.48;89.49;100790.88;5029122;28;20045;-50
2023/05/03 11:09:13;;;;;;;1.83;0.93;;;;;;;9.56;88.38;100785.38;5026431;28;20017;-51
2023/05/03 11:11:40;;;;;;;1.50;1.10;;;;;;;9.58;89.52;100785.97;5014848;28;20092;-50
2023/05/03 11:14:08;;;;;;;2.63;0.90;;;;;;;9.65;89.59;100784.16;5034451;28;20068;-49
2023/05/03 11:16:45;;;;;;;1.27;0.77;;;;;;;9.42;91.20;100784.47;5030171;28;20072;-50
2023/05/03 11:19:13;;;;;;;2.30;0.60;;;;;;;9.51;92.46;100788.63;5014692;28;20509;-47
2023/05/03 11:21:40;;;;;;;1.23;0.50;;;;;;;9.51;92.73;100791.31;5026885;28;20414;-50
2023/05/03 11:24:06;;;;;;;2.42;0.60;;;;;;;9.52;92.87;100794.81;5021036;28;20037;-48
2023/05/03 11:26:38;;;;;;;0.95;0.50;;;;;;;9.71;92.19;100790.53;5032729;28;20067;-50
2023/05/03 11:29:05;;;;;;;1.58;0.70;;;;;;;9.85;91.88;100788.72;5033498;28;20034;-49
2023/05/03 11:31:31;;;;;;;3.60;0.50;;;;;;;10.05;90.43;100794.94;5032884;28;20389;-48
2023/05/03 11:33:58;;;;;;;6.15;0.73;;;;;;;10.21;89.35;100783.00;5033312;28;20418;-51
2023/05/03 11:36:26;;;;;;;2.13;0.60;;;;;;;9.96;89.97;100782.78;5031930;28;20033;-47